createdAt,value
2019-06-27T00:01:20.272Z,25.26
2019-06-27T00:03:50.114Z,25.15
2019-06-27T00:06:20.163Z,25.11
2019-06-27T00:08:49.610Z,25.19
2019-06-27T00:11:19.394Z,25.04
2019-06-27T00:13:49.086Z,24.96
2019-06-27T00:16:19.059Z,24.66
2019-06-27T00:18:48.490Z,24.83
2019-06-27T00:21:19.366Z,24.38
2019-06-27T00:23:48.868Z,24.17
2019-06-27T00:26:18.304Z,24.55
2019-06-27T00:28:48.344Z,24.63
2019-06-27T00:31:18.515Z,24.61
2019-06-27T00:33:48.483Z,24.38
2019-06-27T00:36:17.649Z,24.35
2019-06-27T00:38:46.832Z,24.50
2019-06-27T00:41:16.282Z,24.30
2019-06-27T00:43:46.554Z,24.12
2019-06-27T00:46:16.094Z,24.16
2019-06-27T00:48:46.007Z,23.81
2019-06-27T00:51:16.212Z,23.97
2019-06-27T00:53:45.756Z,23.99
2019-06-27T00:56:15.175Z,24.06
2019-06-27T00:58:44.377Z,23.97
2019-06-27T01:01:15.796Z,24.00
2019-06-27T01:03:45.335Z,23.99
2019-06-27T01:06:14.482Z,24.17
2019-06-27T01:08:48.047Z,24.25
2019-06-27T01:11:17.208Z,24.00
2019-06-27T01:13:46.950Z,23.95
2019-06-27T01:16:16.523Z,24.01
2019-06-27T01:18:46.157Z,23.58
2019-06-27T01:21:16.183Z,23.48
2019-06-27T01:23:45.654Z,23.30
2019-06-27T01:26:15.084Z,23.36
2019-06-27T01:28:45.593Z,23.28
2019-06-27T01:31:15.002Z,23.44
2019-06-27T01:33:45.310Z,23.28
2019-06-27T01:36:14.802Z,23.04
2019-06-27T01:38:44.271Z,23.25
2019-06-27T01:41:13.835Z,23.12
2019-06-27T01:43:44.081Z,23.18
2019-06-27T01:46:14.279Z,23.28
2019-06-27T01:48:43.527Z,23.40
2019-06-27T01:51:12.683Z,23.26
2019-06-27T01:53:42.421Z,23.28
2019-06-27T01:56:11.851Z,23.42
2019-06-27T01:58:41.643Z,23.12
2019-06-27T02:01:12.288Z,23.02
2019-06-27T02:03:42.356Z,22.79
2019-06-27T02:06:12.579Z,22.74
2019-06-27T02:08:43.689Z,22.66
2019-06-27T02:11:13.136Z,22.84
2019-06-27T02:13:44.380Z,22.84
2019-06-27T02:16:13.880Z,22.55
2019-06-27T02:18:44.740Z,22.57
2019-06-27T02:21:14.013Z,22.65
2019-06-27T02:23:43.984Z,22.52
2019-06-27T02:26:13.698Z,22.77
2019-06-27T02:28:43.122Z,22.73
2019-06-27T02:31:12.579Z,22.92
2019-06-27T02:33:41.775Z,22.91
2019-06-27T02:36:12.702Z,22.75
2019-06-27T02:38:42.499Z,22.50
2019-06-27T02:41:11.698Z,22.26
2019-06-27T02:43:42.364Z,21.90
2019-06-27T02:46:12.525Z,21.90
2019-06-27T02:48:42.228Z,21.80
2019-06-27T02:51:11.703Z,21.78
2019-06-27T02:53:41.111Z,22.14
2019-06-27T02:56:13.304Z,22.14
2019-06-27T02:58:43.120Z,21.78
2019-06-27T03:01:13.103Z,21.98
2019-06-27T03:03:43.210Z,21.86
2019-06-27T03:06:14.415Z,22.28
2019-06-27T03:08:43.866Z,21.93
2019-06-27T03:11:14.308Z,21.43
2019-06-27T03:13:43.816Z,21.43
2019-06-27T03:16:13.294Z,21.64
2019-06-27T03:18:43.054Z,21.80
2019-06-27T03:21:13.163Z,21.74
2019-06-27T03:23:42.757Z,21.86
2019-06-27T03:26:12.481Z,21.45
2019-06-27T03:28:51.671Z,21.68
2019-06-27T03:31:13.139Z,21.90
2019-06-27T03:33:42.982Z,21.99
2019-06-27T03:36:13.551Z,21.57
2019-06-27T03:38:44.793Z,21.91
2019-06-27T03:41:14.026Z,21.91
2019-06-27T03:43:43.484Z,21.55
2019-06-27T03:46:15.504Z,21.28
2019-06-27T03:48:45.462Z,21.28
2019-06-27T03:51:14.668Z,21.28
2019-06-27T03:53:43.834Z,21.47
2019-06-27T03:56:13.337Z,21.52
2019-06-27T03:58:43.290Z,21.33
2019-06-27T04:01:12.486Z,21.44
2019-06-27T04:03:43.087Z,21.19
2019-06-27T04:06:18.505Z,21.48
2019-06-27T04:08:49.394Z,21.38
2019-06-27T04:11:18.876Z,21.31
2019-06-27T04:13:48.827Z,21.34
2019-06-27T04:16:20.390Z,21.14
2019-06-27T04:18:49.559Z,21.10
2019-06-27T04:21:20.101Z,21.39
2019-06-27T04:23:49.393Z,21.28
2019-06-27T04:26:19.407Z,21.29
2019-06-27T04:28:48.950Z,21.25
2019-06-27T04:31:19.027Z,21.40
2019-06-27T04:33:49.355Z,21.48
2019-06-27T04:36:19.431Z,21.40
2019-06-27T04:38:49.413Z,21.26
2019-06-27T04:41:18.699Z,21.26
2019-06-27T04:43:47.966Z,21.60
2019-06-27T04:46:18.143Z,21.45
2019-06-27T04:48:47.330Z,21.46
2019-06-27T04:51:16.515Z,21.32
2019-06-27T04:53:46.012Z,21.45
2019-06-27T04:56:15.478Z,21.49
2019-06-27T04:58:45.189Z,21.51
2019-06-27T05:01:14.659Z,21.59
2019-06-27T05:03:45.207Z,21.65
2019-06-27T05:06:14.968Z,21.68
2019-06-27T05:08:44.474Z,21.85
2019-06-27T05:11:14.259Z,21.78
2019-06-27T05:13:43.715Z,21.91
2019-06-27T05:16:13.156Z,22.08
2019-06-27T05:18:43.947Z,21.68
2019-06-27T05:21:13.918Z,21.13
2019-06-27T05:23:44.405Z,21.10
2019-06-27T05:26:13.845Z,20.84
2019-06-27T05:28:44.088Z,20.95
2019-06-27T05:31:13.907Z,21.03
2019-06-27T05:33:43.356Z,20.97
2019-06-27T05:36:13.912Z,21.23
2019-06-27T05:38:43.870Z,21.27
2019-06-27T05:41:13.592Z,21.27
2019-06-27T05:43:43.053Z,21.31
2019-06-27T05:46:13.027Z,21.33
2019-06-27T05:48:42.567Z,21.55
2019-06-27T05:51:12.057Z,21.55
2019-06-27T05:53:41.267Z,21.34
2019-06-27T05:56:11.232Z,21.10
2019-06-27T05:58:43.422Z,21.09
2019-06-27T06:01:13.194Z,20.98
2019-06-27T06:03:42.934Z,21.07
2019-06-27T06:06:12.429Z,20.94
2019-06-27T06:08:41.876Z,21.37
2019-06-27T06:11:11.078Z,21.22
2019-06-27T06:13:40.515Z,21.22
2019-06-27T06:16:10.015Z,21.49
2019-06-27T06:18:39.497Z,21.63
2019-06-27T06:21:09.342Z,21.50
2019-06-27T06:23:39.357Z,21.55
2019-06-27T06:26:09.984Z,21.86
2019-06-27T06:28:39.442Z,21.99
2019-06-27T06:31:09.004Z,21.99
2019-06-27T06:33:38.707Z,22.30
2019-06-27T06:36:07.899Z,22.23
2019-06-27T06:38:38.461Z,22.28
2019-06-27T06:41:09.565Z,22.26
2019-06-27T06:43:39.113Z,22.51
2019-06-27T06:46:08.649Z,22.43
2019-06-27T06:48:39.274Z,22.14
2019-06-27T06:51:10.883Z,22.52
2019-06-27T06:53:40.547Z,22.23
2019-06-27T06:56:12.179Z,22.47
2019-06-27T06:58:41.362Z,22.59
2019-06-27T07:01:10.934Z,22.66
2019-06-27T07:03:40.393Z,22.51
2019-06-27T07:06:09.611Z,22.99
2019-06-27T07:08:41.607Z,22.93
2019-06-27T07:11:11.237Z,22.81
2019-06-27T07:13:40.766Z,23.10
2019-06-27T07:16:09.988Z,22.96
2019-06-27T07:18:40.560Z,22.80
2019-06-27T07:21:10.417Z,22.63
2019-06-27T07:23:40.751Z,22.45
2019-06-27T07:26:10.653Z,22.36
2019-06-27T07:28:42.863Z,22.64
2019-06-27T07:31:17.657Z,22.66
2019-06-27T07:33:44.568Z,22.50
2019-06-27T07:36:14.008Z,22.52
2019-06-27T07:38:46.909Z,22.17
2019-06-27T07:41:14.716Z,22.36
2019-06-27T07:43:43.893Z,22.66
2019-06-27T07:46:24.431Z,22.73
2019-06-27T07:48:45.474Z,22.62
2019-06-27T07:51:15.389Z,22.83
2019-06-27T07:53:44.769Z,22.79
2019-06-27T07:56:13.933Z,22.78
2019-06-27T07:58:44.439Z,22.89
2019-06-27T08:01:15.770Z,23.20
2019-06-27T08:03:47.730Z,23.39
2019-06-27T08:06:17.429Z,23.45
2019-06-27T08:08:46.925Z,23.81
2019-06-27T08:11:16.092Z,23.79
2019-06-27T08:13:45.611Z,23.92
2019-06-27T08:16:17.359Z,24.08
2019-06-27T08:18:48.050Z,24.14
2019-06-27T08:21:18.564Z,24.27
2019-06-27T08:23:48.056Z,24.16
2019-06-27T08:26:17.499Z,24.21
2019-06-27T08:28:49.241Z,24.44
2019-06-27T08:31:18.388Z,24.71
2019-06-27T08:33:48.654Z,24.60
2019-06-27T08:36:18.937Z,24.59
2019-06-27T08:38:49.492Z,24.66
2019-06-27T08:41:18.662Z,24.58
2019-06-27T08:43:48.961Z,24.77
2019-06-27T08:46:20.161Z,24.65
2019-06-27T08:48:50.365Z,24.55
2019-06-27T08:51:20.323Z,24.61
2019-06-27T08:53:49.509Z,24.98
2019-06-27T08:56:18.654Z,25.06
2019-06-27T08:58:47.812Z,25.13
2019-06-27T09:01:19.601Z,24.96
2019-06-27T09:03:48.781Z,25.24
2019-06-27T09:06:20.988Z,25.26
2019-06-27T09:08:48.834Z,25.39
2019-06-27T09:11:17.993Z,25.43
2019-06-27T09:13:47.450Z,25.66
2019-06-27T09:16:16.817Z,25.22
2019-06-27T09:18:46.065Z,25.59
2019-06-27T09:21:15.221Z,25.59
2019-06-27T09:23:44.681Z,25.82
2019-06-27T09:26:13.817Z,26.03
2019-06-27T09:28:43.305Z,25.92
2019-06-27T09:31:14.344Z,26.25
2019-06-27T09:33:44.849Z,26.02
2019-06-27T09:36:14.000Z,26.03
2019-06-27T09:38:43.169Z,25.80
2019-06-27T09:41:12.366Z,26.14
2019-06-27T09:43:41.853Z,26.13
2019-06-27T09:46:11.399Z,26.41
2019-06-27T09:48:41.161Z,27.26
2019-06-27T09:51:10.377Z,27.35
2019-06-27T09:53:39.889Z,27.13
2019-06-27T09:56:09.735Z,27.37
2019-06-27T09:58:39.180Z,27.42
2019-06-27T10:01:09.773Z,27.21
2019-06-27T10:03:39.733Z,27.07
2019-06-27T10:06:09.198Z,27.17
2019-06-27T10:08:41.425Z,27.69
2019-06-27T10:11:10.623Z,27.66
2019-06-27T10:13:40.135Z,28.49
2019-06-27T10:16:09.634Z,28.82
2019-06-27T10:18:39.382Z,28.25
2019-06-27T10:21:09.526Z,27.73
2019-06-27T10:23:38.995Z,27.61
2019-06-27T10:26:09.542Z,27.01
2019-06-27T10:28:39.523Z,28.06
2019-06-27T10:31:09.039Z,28.28
2019-06-27T10:33:40.726Z,28.46
2019-06-27T10:36:09.905Z,28.70
2019-06-27T10:38:39.129Z,28.37
2019-06-27T10:41:10.747Z,28.70
2019-06-27T10:43:40.914Z,28.93
2019-06-27T10:46:10.605Z,29.11
2019-06-27T10:48:39.884Z,29.22
2019-06-27T10:51:09.092Z,29.27
2019-06-27T10:53:39.218Z,29.41
2019-06-27T10:56:08.434Z,29.56
2019-06-27T10:58:37.879Z,29.87
2019-06-27T11:01:07.105Z,29.67
2019-06-27T11:03:38.495Z,29.74
2019-06-27T11:06:07.138Z,29.47
2019-06-27T11:08:36.587Z,29.47
2019-06-27T11:11:06.548Z,29.89
2019-06-27T11:13:36.476Z,29.60
2019-06-27T11:16:05.792Z,29.94
2019-06-27T11:18:35.610Z,30.01
2019-06-27T11:21:05.981Z,29.99
2019-06-27T11:23:36.056Z,29.75
2019-06-27T11:26:09.341Z,30.81
2019-06-27T11:28:37.506Z,30.59
2019-06-27T11:31:09.697Z,30.48
2019-06-27T11:33:39.152Z,30.70
2019-06-27T11:36:08.317Z,30.84
2019-06-27T11:38:37.865Z,30.42
2019-06-27T11:41:07.373Z,30.49
2019-06-27T11:43:37.044Z,30.63
2019-06-27T11:46:09.023Z,30.89
2019-06-27T11:48:38.512Z,30.35
2019-06-27T11:51:07.980Z,30.30
2019-06-27T11:53:37.256Z,30.69
2019-06-27T11:56:06.452Z,30.40
2019-06-27T11:58:37.267Z,30.90
2019-06-27T12:01:06.465Z,30.73
2019-06-27T12:03:48.838Z,30.36
2019-06-27T12:06:14.233Z,30.81
2019-06-27T12:08:43.481Z,30.44
2019-06-27T12:11:12.671Z,30.54
2019-06-27T12:13:42.916Z,31.24
2019-06-27T12:16:12.836Z,30.96
2019-06-27T12:18:42.020Z,31.69
2019-06-27T12:21:12.411Z,31.85
2019-06-27T12:23:41.936Z,31.45
2019-06-27T12:26:11.188Z,32.52
2019-06-27T12:28:40.726Z,32.26
2019-06-27T12:31:19.905Z,32.28
2019-06-27T12:33:40.935Z,32.43
2019-06-27T12:36:10.393Z,32.18
2019-06-27T12:38:40.490Z,32.57
2019-06-27T12:41:10.285Z,33.21
2019-06-27T12:43:42.385Z,32.63
2019-06-27T12:46:12.267Z,32.91
2019-06-27T12:48:41.793Z,32.28
2019-06-27T12:51:11.046Z,32.52
2019-06-27T12:53:40.592Z,33.04
2019-06-27T12:56:09.763Z,33.38
2019-06-27T12:58:38.996Z,32.97
2019-06-27T13:01:08.140Z,33.43
2019-06-27T13:03:37.300Z,33.30
2019-06-27T13:06:07.682Z,32.92
2019-06-27T13:08:37.094Z,33.10
2019-06-27T13:11:07.060Z,33.07
2019-06-27T13:13:36.322Z,32.60
2019-06-27T13:16:05.615Z,32.65
2019-06-27T13:18:34.764Z,33.27
2019-06-27T13:21:04.304Z,32.94
2019-06-27T13:23:33.539Z,33.68
2019-06-27T13:26:03.034Z,33.52
2019-06-27T13:28:33.669Z,33.76
2019-06-27T13:31:04.817Z,34.58
2019-06-27T13:33:34.337Z,33.65
2019-06-27T13:36:04.513Z,33.69
2019-06-27T13:38:33.749Z,33.92
2019-06-27T13:41:02.957Z,33.66
2019-06-27T13:43:32.421Z,34.11
2019-06-27T13:46:01.929Z,34.60
2019-06-27T13:48:31.074Z,34.47
2019-06-27T13:51:01.388Z,34.99
2019-06-27T13:53:30.800Z,34.32
2019-06-27T13:56:00.001Z,34.91
2019-06-27T13:58:30.807Z,34.58
2019-06-27T14:01:03.335Z,34.69
2019-06-27T14:03:48.043Z,35.39
2019-06-27T14:06:03.732Z,34.57
2019-06-27T14:08:32.873Z,34.56
2019-06-27T14:11:02.067Z,34.71
2019-06-27T14:13:31.789Z,34.32
2019-06-27T14:16:05.847Z,35.03
2019-06-27T14:18:34.202Z,35.31
2019-06-27T14:21:03.711Z,35.40
2019-06-27T14:23:32.860Z,35.50
2019-06-27T14:26:02.055Z,34.46
2019-06-27T14:28:31.232Z,34.97
2019-06-27T14:31:00.420Z,35.48
2019-06-27T14:33:29.832Z,36.07
2019-06-27T14:35:58.968Z,35.35
2019-06-27T14:38:28.203Z,35.92
2019-06-27T14:40:57.752Z,34.89
2019-06-27T14:43:27.224Z,35.21
2019-06-27T14:45:57.700Z,35.54
2019-06-27T14:48:27.290Z,35.27
2019-06-27T14:50:56.719Z,35.15
2019-06-27T14:53:26.523Z,35.16
2019-06-27T14:55:55.675Z,34.53
2019-06-27T14:58:24.893Z,35.68
2019-06-27T15:00:54.331Z,36.05
2019-06-27T15:03:24.525Z,35.66
2019-06-27T15:05:55.801Z,35.70
2019-06-27T15:08:24.995Z,35.64
2019-06-27T15:10:54.516Z,34.81
2019-06-27T15:13:23.715Z,35.91
2019-06-27T15:15:52.896Z,36.23
2019-06-27T15:18:22.626Z,35.83
2019-06-27T15:20:52.062Z,36.31
2019-06-27T15:23:21.543Z,35.91
2019-06-27T15:25:50.948Z,36.45
2019-06-27T15:28:21.167Z,35.60
2019-06-27T15:30:51.128Z,35.01
2019-06-27T15:33:20.580Z,35.83
2019-06-27T15:35:52.532Z,36.11
2019-06-27T15:38:20.651Z,35.41
2019-06-27T15:40:49.805Z,35.61
2019-06-27T15:43:19.247Z,35.98
2019-06-27T15:45:48.804Z,35.40
2019-06-27T15:48:18.280Z,35.67
2019-06-27T15:50:47.435Z,35.56
2019-06-27T15:53:18.426Z,35.15
2019-06-27T15:55:47.564Z,35.63
2019-06-27T15:58:16.871Z,35.27
2019-06-27T16:00:45.985Z,35.31
2019-06-27T16:03:16.033Z,35.46
2019-06-27T16:05:45.229Z,35.04
2019-06-27T16:08:14.398Z,35.61
2019-06-27T16:10:43.591Z,36.17
2019-06-27T16:13:14.292Z,35.94
2019-06-27T16:15:43.973Z,36.14
2019-06-27T16:18:13.118Z,35.93
2019-06-27T16:20:42.572Z,36.06
2019-06-27T16:23:12.102Z,35.98
2019-06-27T16:25:43.161Z,35.71
2019-06-27T16:28:12.736Z,35.93
2019-06-27T16:30:42.188Z,35.66
2019-06-27T16:33:11.634Z,35.47
2019-06-27T16:35:41.424Z,35.65
2019-06-27T16:38:11.008Z,34.42
2019-06-27T16:40:40.254Z,35.05
2019-06-27T16:43:09.921Z,34.60
2019-06-27T16:45:40.538Z,35.06
2019-06-27T16:48:10.251Z,35.50
2019-06-27T16:50:40.099Z,35.44
2019-06-27T16:53:09.544Z,35.42
2019-06-27T16:55:38.745Z,34.99
2019-06-27T16:58:07.919Z,35.15
2019-06-27T17:00:37.938Z,35.11
2019-06-27T17:03:09.216Z,33.45
2019-06-27T17:05:39.196Z,34.31
2019-06-27T17:08:08.979Z,34.00
2019-06-27T17:10:38.173Z,33.87
2019-06-27T17:13:07.375Z,32.77
2019-06-27T17:15:36.563Z,33.20
2019-06-27T17:18:06.523Z,33.42
2019-06-27T17:20:36.056Z,33.81
2019-06-27T17:23:05.654Z,33.89
2019-06-27T17:25:36.733Z,33.67
2019-06-27T17:28:06.960Z,33.65
2019-06-27T17:30:38.846Z,33.62
2019-06-27T17:33:09.082Z,32.85
2019-06-27T17:35:39.206Z,32.39
2019-06-27T17:38:08.697Z,32.64
2019-06-27T17:40:38.360Z,32.40
2019-06-27T17:43:07.541Z,32.78
2019-06-27T17:45:37.399Z,32.95
2019-06-27T17:48:06.597Z,33.12
2019-06-27T17:50:35.789Z,32.44
2019-06-27T17:53:05.110Z,32.45
2019-06-27T17:55:34.554Z,32.44
2019-06-27T17:58:07.088Z,32.66
2019-06-27T18:00:36.430Z,32.88
2019-06-27T18:03:06.700Z,31.73
2019-06-27T18:05:36.323Z,32.17
2019-06-27T18:08:05.473Z,31.78
2019-06-27T18:10:34.738Z,31.67
2019-06-27T18:13:03.944Z,31.49
2019-06-27T18:15:34.190Z,30.71
2019-06-27T18:18:04.277Z,30.63
2019-06-27T18:20:35.416Z,30.81
2019-06-27T18:23:08.387Z,30.43
2019-06-27T18:25:38.824Z,30.60
2019-06-27T18:28:08.802Z,30.96
2019-06-27T18:30:38.635Z,30.75
2019-06-27T18:33:08.954Z,30.32
2019-06-27T18:35:38.117Z,30.29
2019-06-27T18:38:07.305Z,29.76
2019-06-27T18:40:36.532Z,29.55
2019-06-27T18:43:06.659Z,29.14
2019-06-27T18:45:36.823Z,29.24
2019-06-27T18:48:06.153Z,29.12
2019-06-27T18:50:35.280Z,29.31
2019-06-27T18:53:04.471Z,29.11
2019-06-27T18:55:33.789Z,28.74
2019-06-27T18:58:02.981Z,28.77
2019-06-27T19:00:32.142Z,28.52
2019-06-27T19:03:01.618Z,28.83
2019-06-27T19:05:30.826Z,28.33
2019-06-27T19:08:00.068Z,28.50
2019-06-27T19:10:29.494Z,28.53
2019-06-27T19:12:58.879Z,28.37
2019-06-27T19:15:28.328Z,28.31
2019-06-27T19:17:58.739Z,28.09
2019-06-27T19:20:47.023Z,28.31
2019-06-27T19:23:49.784Z,28.35
2019-06-27T19:26:20.068Z,27.99
2019-06-27T19:28:52.074Z,28.02
2019-06-27T19:31:22.325Z,27.73
2019-06-27T19:33:51.512Z,27.81
2019-06-27T19:36:21.354Z,27.84
2019-06-27T19:38:50.835Z,27.74
2019-06-27T19:41:20.788Z,27.37
2019-06-27T19:43:50.396Z,27.52
2019-06-27T19:46:19.583Z,27.57
2019-06-27T19:48:48.832Z,27.27
2019-06-27T19:51:18.081Z,27.04
2019-06-27T19:53:47.314Z,26.89
2019-06-27T19:56:17.901Z,26.96
2019-06-27T19:58:52.304Z,26.78
2019-06-27T20:01:21.497Z,26.80
2019-06-27T20:03:51.171Z,26.81
2019-06-27T20:06:21.621Z,26.74
2019-06-27T20:08:51.737Z,26.57
2019-06-27T20:11:22.909Z,26.70
2019-06-27T20:13:52.468Z,26.61
2019-06-27T20:16:21.952Z,26.61
2019-06-27T20:18:51.525Z,26.62
2019-06-27T20:21:20.711Z,26.58
2019-06-27T20:23:50.620Z,26.61
2019-06-27T20:26:19.916Z,26.19
2019-06-27T20:28:50.012Z,26.07
2019-06-27T20:31:20.927Z,26.03
2019-06-27T20:33:50.121Z,25.90
2019-06-27T20:36:20.095Z,25.61
2019-06-27T20:38:50.526Z,25.49
2019-06-27T20:41:19.681Z,25.42
2019-06-27T20:43:49.576Z,25.32
2019-06-27T20:46:19.862Z,25.34
2019-06-27T20:48:49.637Z,25.38
2019-06-27T20:51:19.944Z,24.97
2019-06-27T20:53:49.420Z,25.09
2019-06-27T20:56:18.602Z,24.72
2019-06-27T20:58:47.751Z,24.59
2019-06-27T21:01:17.131Z,24.81
2019-06-27T21:03:46.290Z,24.34
2019-06-27T21:06:16.888Z,24.06
2019-06-27T21:08:51.474Z,23.94
2019-06-27T21:11:19.714Z,24.03
2019-06-27T21:13:49.700Z,24.15
2019-06-27T21:16:19.625Z,23.52
2019-06-27T21:18:49.127Z,23.62
2019-06-27T21:21:19.813Z,23.56
2019-06-27T21:23:48.985Z,23.22
2019-06-27T21:26:21.392Z,23.02
2019-06-27T21:28:54.444Z,22.93
2019-06-27T21:31:24.887Z,22.94
2019-06-27T21:33:54.041Z,22.88
2019-06-27T21:36:25.340Z,22.63
2019-06-27T21:39:06.994Z,22.72
2019-06-27T21:41:29.429Z,22.42
2019-06-27T21:43:58.614Z,22.14
2019-06-27T21:46:28.155Z,22.14
2019-06-27T21:49:01.690Z,22.25
2019-06-27T21:51:31.514Z,22.55
2019-06-27T21:54:23.434Z,22.55
2019-06-27T21:56:56.617Z,22.21
2019-06-27T21:59:28.521Z,22.45
2019-06-27T22:01:59.007Z,22.64
2019-06-27T22:04:30.487Z,22.65
2019-06-27T22:07:06.112Z,22.57
2019-06-27T22:09:39.074Z,22.28
2019-06-27T22:12:12.378Z,22.41
2019-06-27T22:14:45.312Z,22.09
2019-06-27T22:17:16.177Z,22.30
2019-06-27T22:19:46.220Z,22.24
2019-06-27T22:22:15.443Z,22.47
2019-06-27T22:24:44.751Z,22.50
2019-06-27T22:27:15.442Z,22.25
2019-06-27T22:29:44.651Z,22.31
2019-06-27T22:32:13.894Z,22.46
2019-06-27T22:34:43.917Z,21.93
2019-06-27T22:37:13.360Z,22.07
2019-06-27T22:40:00.221Z,22.07
2019-06-27T22:42:47.128Z,22.17
2019-06-27T22:45:34.860Z,22.17
2019-06-27T22:48:13.165Z,22.02
2019-06-27T22:51:13.331Z,21.87
2019-06-27T22:53:52.479Z,21.89
2019-06-27T22:56:23.470Z,21.90
2019-06-27T22:58:52.890Z,21.74
2019-06-27T23:01:22.391Z,21.83
2019-06-27T23:03:52.556Z,21.71
2019-06-27T23:06:26.667Z,21.64
2019-06-27T23:09:00.047Z,21.75
2019-06-27T23:11:30.062Z,21.79
2019-06-27T23:14:00.590Z,21.22
2019-06-27T23:16:30.025Z,21.17
2019-06-27T23:18:59.951Z,20.79
2019-06-27T23:21:30.069Z,20.95
2019-06-27T23:24:00.311Z,20.76
2019-06-27T23:26:29.779Z,20.76
2019-06-27T23:29:00.107Z,20.77
2019-06-27T23:31:30.533Z,20.97
2019-06-27T23:34:04.947Z,20.90
2019-06-27T23:36:35.103Z,21.00
2019-06-27T23:39:05.496Z,21.00
2019-06-27T23:41:35.026Z,20.58
2019-06-27T23:44:04.485Z,20.49
2019-06-27T23:46:41.642Z,20.23
2019-06-27T23:49:11.433Z,20.06
2019-06-27T23:51:42.265Z,20.33
2019-06-27T23:54:12.100Z,19.97
2019-06-27T23:56:43.176Z,20.16
2019-06-27T23:59:13.499Z,20.30
